sensor_id;sensor_type;location;lat;lon;timestamp;P1;durP1;ratioP1;P2;durP2;ratioP2
10365;SDS011;5229;41.820;23.490;2023-02-26T00:01:16;5.50;;;4.57;;
10365;SDS011;5229;41.820;23.490;2023-02-26T00:03:47;11.97;;;4.93;;
10365;SDS011;5229;41.820;23.490;2023-02-26T00:06:14;9.97;;;4.63;;
10365;SDS011;5229;41.820;23.490;2023-02-26T00:08:41;11.63;;;4.97;;
10365;SDS011;5229;41.820;23.490;2023-02-26T00:11:08;9.10;;;4.90;;
10365;SDS011;5229;41.820;23.490;2023-02-26T00:13:36;8.63;;;5.00;;
10365;SDS011;5229;41.820;23.490;2023-02-26T00:16:11;9.77;;;5.33;;
10365;SDS011;5229;41.820;23.490;2023-02-26T00:18:46;8.63;;;4.43;;
10365;SDS011;5229;41.820;23.490;2023-02-26T00:21:14;7.37;;;5.30;;
10365;SDS011;5229;41.820;23.490;2023-02-26T00:23:42;6.73;;;4.60;;
10365;SDS011;5229;41.820;23.490;2023-02-26T00:26:09;12.00;;;5.03;;
10365;SDS011;5229;41.820;23.490;2023-02-26T00:28:37;7.37;;;3.67;;
10365;SDS011;5229;41.820;23.490;2023-02-26T00:31:06;10.50;;;4.47;;
10365;SDS011;5229;41.820;23.490;2023-02-26T00:33:34;6.47;;;2.70;;
10365;SDS011;5229;41.820;23.490;2023-02-26T00:36:02;7.33;;;2.27;;
10365;SDS011;5229;41.820;23.490;2023-02-26T00:38:41;12.77;;;2.60;;
10365;SDS011;5229;41.820;23.490;2023-02-26T00:41:11;4.77;;;2.13;;
10365;SDS011;5229;41.820;23.490;2023-02-26T00:43:39;10.17;;;2.70;;
10365;SDS011;5229;41.820;23.490;2023-02-26T00:46:09;4.47;;;2.20;;
10365;SDS011;5229;41.820;23.490;2023-02-26T00:48:45;8.40;;;3.10;;
10365;SDS011;5229;41.820;23.490;2023-02-26T00:51:19;5.60;;;2.73;;
10365;SDS011;5229;41.820;23.490;2023-02-26T00:53:51;8.27;;;3.43;;
10365;SDS011;5229;41.820;23.490;2023-02-26T00:56:24;6.53;;;2.97;;
10365;SDS011;5229;41.820;23.490;2023-02-26T00:58:51;9.40;;;3.17;;
10365;SDS011;5229;41.820;23.490;2023-02-26T01:01:19;4.20;;;2.70;;
10365;SDS011;5229;41.820;23.490;2023-02-26T01:03:46;5.30;;;2.47;;
10365;SDS011;5229;41.820;23.490;2023-02-26T01:06:14;5.47;;;2.00;;
10365;SDS011;5229;41.820;23.490;2023-02-26T01:08:46;5.93;;;2.67;;
10365;SDS011;5229;41.820;23.490;2023-02-26T01:11:20;7.13;;;2.67;;
10365;SDS011;5229;41.820;23.490;2023-02-26T01:13:47;5.83;;;2.93;;
10365;SDS011;5229;41.820;23.490;2023-02-26T01:16:16;8.80;;;2.40;;
10365;SDS011;5229;41.820;23.490;2023-02-26T01:18:52;5.97;;;3.20;;
10365;SDS011;5229;41.820;23.490;2023-02-26T01:21:24;6.13;;;2.63;;
10365;SDS011;5229;41.820;23.490;2023-02-26T01:23:56;3.87;;;1.67;;
10365;SDS011;5229;41.820;23.490;2023-02-26T01:26:27;4.77;;;2.27;;
10365;SDS011;5229;41.820;23.490;2023-02-26T01:28:54;10.63;;;2.03;;
10365;SDS011;5229;41.820;23.490;2023-02-26T01:31:29;5.37;;;2.23;;
10365;SDS011;5229;41.820;23.490;2023-02-26T01:34:02;8.13;;;2.80;;
10365;SDS011;5229;41.820;23.490;2023-02-26T01:36:35;9.73;;;3.10;;
10365;SDS011;5229;41.820;23.490;2023-02-26T01:39:07;4.50;;;2.13;;
10365;SDS011;5229;41.820;23.490;2023-02-26T01:41:43;8.63;;;3.07;;
10365;SDS011;5229;41.820;23.490;2023-02-26T01:44:13;11.67;;;2.70;;
10365;SDS011;5229;41.820;23.490;2023-02-26T01:47:05;6.87;;;3.37;;
10365;SDS011;5229;41.820;23.490;2023-02-26T01:49:39;7.33;;;3.60;;
10365;SDS011;5229;41.820;23.490;2023-02-26T01:52:06;8.37;;;2.20;;
10365;SDS011;5229;41.820;23.490;2023-02-26T01:55:25;5.17;;;2.00;;
10365;SDS011;5229;41.820;23.490;2023-02-26T01:57:55;4.93;;;2.23;;
10365;SDS011;5229;41.820;23.490;2023-02-26T02:00:25;5.63;;;2.67;;
10365;SDS011;5229;41.820;23.490;2023-02-26T02:02:54;9.00;;;2.90;;
10365;SDS011;5229;41.820;23.490;2023-02-26T02:05:23;5.43;;;2.23;;
10365;SDS011;5229;41.820;23.490;2023-02-26T02:07:54;4.40;;;3.07;;
10365;SDS011;5229;41.820;23.490;2023-02-26T02:10:22;9.63;;;3.10;;
10365;SDS011;5229;41.820;23.490;2023-02-26T02:12:50;5.87;;;3.10;;
10365;SDS011;5229;41.820;23.490;2023-02-26T02:15:24;5.67;;;2.73;;
10365;SDS011;5229;41.820;23.490;2023-02-26T02:18:00;5.47;;;3.23;;
10365;SDS011;5229;41.820;23.490;2023-02-26T02:23:49;7.80;;;3.10;;
10365;SDS011;5229;41.820;23.490;2023-02-26T02:29:27;4.30;;;2.70;;
10365;SDS011;5229;41.820;23.490;2023-02-26T02:32:14;6.90;;;3.13;;
10365;SDS011;5229;41.820;23.490;2023-02-26T02:34:46;10.57;;;3.17;;
10365;SDS011;5229;41.820;23.490;2023-02-26T02:37:19;6.23;;;2.63;;
10365;SDS011;5229;41.820;23.490;2023-02-26T02:39:51;5.63;;;3.00;;
10365;SDS011;5229;41.820;23.490;2023-02-26T02:42:23;8.17;;;2.83;;
10365;SDS011;5229;41.820;23.490;2023-02-26T02:44:55;2.97;;;2.17;;
10365;SDS011;5229;41.820;23.490;2023-02-26T02:47:26;6.63;;;3.07;;
10365;SDS011;5229;41.820;23.490;2023-02-26T02:49:58;4.87;;;2.40;;
10365;SDS011;5229;41.820;23.490;2023-02-26T02:52:32;9.70;;;3.07;;
10365;SDS011;5229;41.820;23.490;2023-02-26T02:55:05;5.80;;;2.73;;
10365;SDS011;5229;41.820;23.490;2023-02-26T02:57:36;5.27;;;2.87;;
10365;SDS011;5229;41.820;23.490;2023-02-26T03:00:10;5.67;;;2.90;;
10365;SDS011;5229;41.820;23.490;2023-02-26T03:02:42;8.77;;;2.97;;
10365;SDS011;5229;41.820;23.490;2023-02-26T03:05:14;5.50;;;2.80;;
10365;SDS011;5229;41.820;23.490;2023-02-26T03:07:43;7.93;;;3.07;;
10365;SDS011;5229;41.820;23.490;2023-02-26T03:10:13;5.97;;;3.30;;
10365;SDS011;5229;41.820;23.490;2023-02-26T03:12:40;10.83;;;3.37;;
10365;SDS011;5229;41.820;23.490;2023-02-26T03:15:07;7.00;;;2.60;;
10365;SDS011;5229;41.820;23.490;2023-02-26T03:17:37;6.57;;;3.23;;
10365;SDS011;5229;41.820;23.490;2023-02-26T03:20:14;3.13;;;2.73;;
10365;SDS011;5229;41.820;23.490;2023-02-26T03:22:50;4.73;;;2.67;;
10365;SDS011;5229;41.820;23.490;2023-02-26T03:25:27;7.50;;;2.80;;
10365;SDS011;5229;41.820;23.490;2023-02-26T03:27:59;3.63;;;2.57;;
10365;SDS011;5229;41.820;23.490;2023-02-26T03:30:33;8.47;;;3.17;;
10365;SDS011;5229;41.820;23.490;2023-02-26T03:33:10;9.67;;;3.03;;
10365;SDS011;5229;41.820;23.490;2023-02-26T03:35:43;8.90;;;3.07;;
10365;SDS011;5229;41.820;23.490;2023-02-26T03:38:16;12.03;;;2.87;;
10365;SDS011;5229;41.820;23.490;2023-02-26T03:40:51;8.23;;;3.13;;
10365;SDS011;5229;41.820;23.490;2023-02-26T03:43:24;7.53;;;2.87;;
10365;SDS011;5229;41.820;23.490;2023-02-26T03:45:57;7.07;;;3.50;;
10365;SDS011;5229;41.820;23.490;2023-02-26T03:48:29;8.87;;;3.27;;
10365;SDS011;5229;41.820;23.490;2023-02-26T03:51:00;9.07;;;3.27;;
10365;SDS011;5229;41.820;23.490;2023-02-26T03:53:33;7.67;;;3.20;;
10365;SDS011;5229;41.820;23.490;2023-02-26T03:56:05;4.37;;;2.77;;
10365;SDS011;5229;41.820;23.490;2023-02-26T03:58:42;4.67;;;3.23;;
10365;SDS011;5229;41.820;23.490;2023-02-26T04:01:10;4.60;;;3.00;;
10365;SDS011;5229;41.820;23.490;2023-02-26T04:03:45;6.13;;;2.83;;
10365;SDS011;5229;41.820;23.490;2023-02-26T04:06:15;12.30;;;3.13;;
10365;SDS011;5229;41.820;23.490;2023-02-26T04:08:44;7.33;;;3.23;;
10365;SDS011;5229;41.820;23.490;2023-02-26T04:11:13;6.13;;;2.90;;
10365;SDS011;5229;41.820;23.490;2023-02-26T04:13:43;7.90;;;3.03;;
10365;SDS011;5229;41.820;23.490;2023-02-26T04:16:10;9.00;;;3.00;;
10365;SDS011;5229;41.820;23.490;2023-02-26T04:18:38;6.40;;;2.90;;
10365;SDS011;5229;41.820;23.490;2023-02-26T04:21:06;5.70;;;4.07;;
10365;SDS011;5229;41.820;23.490;2023-02-26T04:23:36;7.57;;;3.27;;
10365;SDS011;5229;41.820;23.490;2023-02-26T04:26:03;5.03;;;2.40;;
10365;SDS011;5229;41.820;23.490;2023-02-26T04:28:30;11.07;;;3.03;;
10365;SDS011;5229;41.820;23.490;2023-02-26T04:30:57;8.47;;;3.77;;
10365;SDS011;5229;41.820;23.490;2023-02-26T04:33:25;8.23;;;3.17;;
10365;SDS011;5229;41.820;23.490;2023-02-26T04:35:52;7.20;;;3.27;;
10365;SDS011;5229;41.820;23.490;2023-02-26T04:38:20;3.80;;;2.13;;
10365;SDS011;5229;41.820;23.490;2023-02-26T04:40:47;13.07;;;2.60;;
10365;SDS011;5229;41.820;23.490;2023-02-26T04:43:15;6.33;;;2.10;;
10365;SDS011;5229;41.820;23.490;2023-02-26T04:45:43;10.00;;;2.20;;
10365;SDS011;5229;41.820;23.490;2023-02-26T04:48:11;3.10;;;2.30;;
10365;SDS011;5229;41.820;23.490;2023-02-26T04:50:38;8.27;;;2.53;;
10365;SDS011;5229;41.820;23.490;2023-02-26T04:53:04;6.53;;;2.17;;
10365;SDS011;5229;41.820;23.490;2023-02-26T04:55:33;6.23;;;2.40;;
10365;SDS011;5229;41.820;23.490;2023-02-26T04:58:00;7.17;;;1.80;;
10365;SDS011;5229;41.820;23.490;2023-02-26T05:00:28;7.67;;;2.17;;
10365;SDS011;5229;41.820;23.490;2023-02-26T05:02:55;5.77;;;3.17;;
10365;SDS011;5229;41.820;23.490;2023-02-26T05:05:21;7.57;;;2.73;;
10365;SDS011;5229;41.820;23.490;2023-02-26T05:07:48;6.40;;;1.93;;
10365;SDS011;5229;41.820;23.490;2023-02-26T05:10:17;6.00;;;2.67;;
10365;SDS011;5229;41.820;23.490;2023-02-26T05:12:46;10.00;;;3.23;;
10365;SDS011;5229;41.820;23.490;2023-02-26T05:15:12;7.97;;;2.67;;
10365;SDS011;5229;41.820;23.490;2023-02-26T05:17:39;5.97;;;2.93;;
10365;SDS011;5229;41.820;23.490;2023-02-26T05:20:07;7.60;;;2.77;;
10365;SDS011;5229;41.820;23.490;2023-02-26T05:22:35;6.13;;;2.87;;
10365;SDS011;5229;41.820;23.490;2023-02-26T05:25:02;9.50;;;2.40;;
10365;SDS011;5229;41.820;23.490;2023-02-26T05:27:30;6.17;;;2.50;;
10365;SDS011;5229;41.820;23.490;2023-02-26T05:29:58;7.00;;;3.20;;
10365;SDS011;5229;41.820;23.490;2023-02-26T05:32:25;7.70;;;3.00;;
10365;SDS011;5229;41.820;23.490;2023-02-26T05:34:52;8.30;;;3.07;;
10365;SDS011;5229;41.820;23.490;2023-02-26T05:37:19;9.80;;;3.33;;
10365;SDS011;5229;41.820;23.490;2023-02-26T05:39:46;6.93;;;3.07;;
10365;SDS011;5229;41.820;23.490;2023-02-26T05:42:12;11.13;;;3.00;;
10365;SDS011;5229;41.820;23.490;2023-02-26T05:44:39;6.87;;;3.00;;
10365;SDS011;5229;41.820;23.490;2023-02-26T05:47:08;10.10;;;3.83;;
10365;SDS011;5229;41.820;23.490;2023-02-26T05:49:35;5.73;;;2.80;;
10365;SDS011;5229;41.820;23.490;2023-02-26T05:52:02;10.80;;;4.03;;
10365;SDS011;5229;41.820;23.490;2023-02-26T05:54:29;6.23;;;3.20;;
10365;SDS011;5229;41.820;23.490;2023-02-26T05:56:56;8.77;;;3.20;;
10365;SDS011;5229;41.820;23.490;2023-02-26T05:59:23;7.57;;;3.27;;
10365;SDS011;5229;41.820;23.490;2023-02-26T06:01:50;10.83;;;2.90;;
10365;SDS011;5229;41.820;23.490;2023-02-26T06:04:18;7.90;;;3.23;;
10365;SDS011;5229;41.820;23.490;2023-02-26T06:06:44;5.40;;;2.87;;
10365;SDS011;5229;41.820;23.490;2023-02-26T06:09:11;10.50;;;3.20;;
10365;SDS011;5229;41.820;23.490;2023-02-26T06:11:38;8.93;;;3.13;;
10365;SDS011;5229;41.820;23.490;2023-02-26T06:14:05;4.47;;;3.00;;
10365;SDS011;5229;41.820;23.490;2023-02-26T06:16:32;8.37;;;3.17;;
10365;SDS011;5229;41.820;23.490;2023-02-26T06:19:00;7.50;;;3.00;;
10365;SDS011;5229;41.820;23.490;2023-02-26T06:21:28;4.83;;;2.77;;
10365;SDS011;5229;41.820;23.490;2023-02-26T06:23:55;5.13;;;2.70;;
10365;SDS011;5229;41.820;23.490;2023-02-26T06:26:22;7.20;;;3.07;;
10365;SDS011;5229;41.820;23.490;2023-02-26T06:28:49;4.07;;;2.60;;
10365;SDS011;5229;41.820;23.490;2023-02-26T06:31:15;6.20;;;2.97;;
10365;SDS011;5229;41.820;23.490;2023-02-26T06:33:42;9.60;;;3.50;;
10365;SDS011;5229;41.820;23.490;2023-02-26T06:36:09;10.53;;;3.40;;
10365;SDS011;5229;41.820;23.490;2023-02-26T06:38:37;6.13;;;3.43;;
10365;SDS011;5229;41.820;23.490;2023-02-26T06:41:04;6.83;;;3.13;;
10365;SDS011;5229;41.820;23.490;2023-02-26T06:43:31;10.97;;;3.57;;
10365;SDS011;5229;41.820;23.490;2023-02-26T06:45:58;7.43;;;3.60;;
10365;SDS011;5229;41.820;23.490;2023-02-26T06:48:25;6.50;;;3.10;;
10365;SDS011;5229;41.820;23.490;2023-02-26T06:50:52;6.30;;;3.40;;
10365;SDS011;5229;41.820;23.490;2023-02-26T06:53:19;5.90;;;3.43;;
10365;SDS011;5229;41.820;23.490;2023-02-26T06:55:48;5.47;;;3.63;;
10365;SDS011;5229;41.820;23.490;2023-02-26T06:58:16;6.47;;;3.77;;
10365;SDS011;5229;41.820;23.490;2023-02-26T07:00:43;9.57;;;3.90;;
10365;SDS011;5229;41.820;23.490;2023-02-26T07:03:11;10.20;;;3.70;;
10365;SDS011;5229;41.820;23.490;2023-02-26T07:05:39;6.90;;;3.30;;
10365;SDS011;5229;41.820;23.490;2023-02-26T07:08:06;8.63;;;4.10;;
10365;SDS011;5229;41.820;23.490;2023-02-26T07:10:33;7.33;;;3.30;;
10365;SDS011;5229;41.820;23.490;2023-02-26T07:13:03;7.43;;;3.47;;
10365;SDS011;5229;41.820;23.490;2023-02-26T07:15:30;10.57;;;3.50;;
10365;SDS011;5229;41.820;23.490;2023-02-26T07:17:57;9.60;;;3.70;;
10365;SDS011;5229;41.820;23.490;2023-02-26T07:20:25;9.73;;;3.10;;
10365;SDS011;5229;41.820;23.490;2023-02-26T07:22:52;7.43;;;3.30;;
10365;SDS011;5229;41.820;23.490;2023-02-26T07:25:19;9.93;;;4.20;;
10365;SDS011;5229;41.820;23.490;2023-02-26T07:27:45;9.17;;;3.53;;
10365;SDS011;5229;41.820;23.490;2023-02-26T07:30:14;9.37;;;3.60;;
10365;SDS011;5229;41.820;23.490;2023-02-26T07:32:42;6.17;;;2.97;;
10365;SDS011;5229;41.820;23.490;2023-02-26T07:35:09;8.47;;;3.60;;
10365;SDS011;5229;41.820;23.490;2023-02-26T07:37:36;4.10;;;3.20;;
10365;SDS011;5229;41.820;23.490;2023-02-26T07:40:03;5.97;;;3.13;;
10365;SDS011;5229;41.820;23.490;2023-02-26T07:42:31;6.93;;;3.60;;
10365;SDS011;5229;41.820;23.490;2023-02-26T07:44:58;6.53;;;3.30;;
10365;SDS011;5229;41.820;23.490;2023-02-26T07:47:26;8.10;;;3.77;;
10365;SDS011;5229;41.820;23.490;2023-02-26T07:49:54;8.00;;;3.67;;
10365;SDS011;5229;41.820;23.490;2023-02-26T07:52:21;6.07;;;3.40;;
10365;SDS011;5229;41.820;23.490;2023-02-26T07:54:48;12.80;;;4.27;;
10365;SDS011;5229;41.820;23.490;2023-02-26T07:57:15;7.90;;;3.67;;
10365;SDS011;5229;41.820;23.490;2023-02-26T07:59:42;8.33;;;3.80;;
10365;SDS011;5229;41.820;23.490;2023-02-26T08:02:09;5.20;;;3.28;;
10365;SDS011;5229;41.820;23.490;2023-02-26T08:04:37;9.70;;;3.43;;
10365;SDS011;5229;41.820;23.490;2023-02-26T08:07:04;10.17;;;4.00;;
10365;SDS011;5229;41.820;23.490;2023-02-26T08:09:31;12.25;;;4.30;;
10365;SDS011;5229;41.820;23.490;2023-02-26T08:11:58;5.97;;;3.87;;
10365;SDS011;5229;41.820;23.490;2023-02-26T08:14:25;8.57;;;3.80;;
10365;SDS011;5229;41.820;23.490;2023-02-26T08:16:52;8.35;;;3.33;;
10365;SDS011;5229;41.820;23.490;2023-02-26T08:19:18;8.23;;;3.93;;
10365;SDS011;5229;41.820;23.490;2023-02-26T08:21:46;5.82;;;3.40;;
10365;SDS011;5229;41.820;23.490;2023-02-26T08:24:13;5.95;;;3.45;;
10365;SDS011;5229;41.820;23.490;2023-02-26T08:26:40;8.13;;;3.58;;
10365;SDS011;5229;41.820;23.490;2023-02-26T08:29:07;5.85;;;3.30;;
10365;SDS011;5229;41.820;23.490;2023-02-26T08:31:34;6.60;;;2.92;;
10365;SDS011;5229;41.820;23.490;2023-02-26T08:34:01;9.93;;;3.28;;
10365;SDS011;5229;41.820;23.490;2023-02-26T08:36:28;9.30;;;3.15;;
10365;SDS011;5229;41.820;23.490;2023-02-26T08:38:56;15.98;;;3.83;;
10365;SDS011;5229;41.820;23.490;2023-02-26T08:41:23;10.32;;;4.18;;
10365;SDS011;5229;41.820;23.490;2023-02-26T08:43:51;8.25;;;3.72;;
10365;SDS011;5229;41.820;23.490;2023-02-26T08:46:18;7.07;;;3.78;;
10365;SDS011;5229;41.820;23.490;2023-02-26T08:48:45;9.55;;;3.65;;
10365;SDS011;5229;41.820;23.490;2023-02-26T08:51:12;9.27;;;3.53;;
10365;SDS011;5229;41.820;23.490;2023-02-26T08:53:39;6.85;;;2.47;;
10365;SDS011;5229;41.820;23.490;2023-02-26T08:56:07;13.55;;;3.08;;
10365;SDS011;5229;41.820;23.490;2023-02-26T08:58:34;11.55;;;3.28;;
10365;SDS011;5229;41.820;23.490;2023-02-26T09:01:01;10.23;;;2.85;;
10365;SDS011;5229;41.820;23.490;2023-02-26T09:03:27;8.50;;;2.38;;
10365;SDS011;5229;41.820;23.490;2023-02-26T09:05:54;4.68;;;2.28;;
10365;SDS011;5229;41.820;23.490;2023-02-26T09:08:21;9.30;;;3.15;;
10365;SDS011;5229;41.820;23.490;2023-02-26T09:10:48;11.10;;;2.35;;
10365;SDS011;5229;41.820;23.490;2023-02-26T09:13:16;9.88;;;3.10;;
10365;SDS011;5229;41.820;23.490;2023-02-26T09:15:43;5.78;;;3.25;;
10365;SDS011;5229;41.820;23.490;2023-02-26T09:18:10;8.25;;;2.63;;
10365;SDS011;5229;41.820;23.490;2023-02-26T09:20:39;6.45;;;2.05;;
10365;SDS011;5229;41.820;23.490;2023-02-26T09:23:06;8.27;;;2.40;;
10365;SDS011;5229;41.820;23.490;2023-02-26T09:25:33;7.95;;;2.42;;
10365;SDS011;5229;41.820;23.490;2023-02-26T09:28:01;9.95;;;2.35;;
10365;SDS011;5229;41.820;23.490;2023-02-26T09:30:29;9.77;;;2.88;;
10365;SDS011;5229;41.820;23.490;2023-02-26T09:32:56;8.27;;;2.40;;
10365;SDS011;5229;41.820;23.490;2023-02-26T09:35:23;13.52;;;2.40;;
10365;SDS011;5229;41.820;23.490;2023-02-26T09:37:50;10.25;;;3.05;;
10365;SDS011;5229;41.820;23.490;2023-02-26T09:40:20;6.07;;;3.17;;
10365;SDS011;5229;41.820;23.490;2023-02-26T09:42:58;8.63;;;3.60;;
10365;SDS011;5229;41.820;23.490;2023-02-26T09:45:35;8.38;;;2.30;;
10365;SDS011;5229;41.820;23.490;2023-02-26T09:48:05;7.95;;;2.70;;
10365;SDS011;5229;41.820;23.490;2023-02-26T09:50:35;7.03;;;2.53;;
10365;SDS011;5229;41.820;23.490;2023-02-26T09:53:09;14.77;;;3.03;;
10365;SDS011;5229;41.820;23.490;2023-02-26T09:55:44;4.55;;;2.33;;
10365;SDS011;5229;41.820;23.490;2023-02-26T09:58:12;5.75;;;2.35;;
10365;SDS011;5229;41.820;23.490;2023-02-26T10:00:46;6.40;;;2.20;;
10365;SDS011;5229;41.820;23.490;2023-02-26T10:03:24;5.22;;;2.47;;
10365;SDS011;5229;41.820;23.490;2023-02-26T10:06:05;7.30;;;2.70;;
10365;SDS011;5229;41.820;23.490;2023-02-26T10:08:43;7.43;;;2.20;;
10365;SDS011;5229;41.820;23.490;2023-02-26T10:11:19;4.25;;;1.98;;
10365;SDS011;5229;41.820;23.490;2023-02-26T10:13:55;7.30;;;3.00;;
10365;SDS011;5229;41.820;23.490;2023-02-26T10:16:28;5.70;;;2.55;;
10365;SDS011;5229;41.820;23.490;2023-02-26T10:19:02;5.38;;;2.33;;
10365;SDS011;5229;41.820;23.490;2023-02-26T10:21:32;7.45;;;2.83;;
10365;SDS011;5229;41.820;23.490;2023-02-26T10:24:05;8.20;;;3.58;;
10365;SDS011;5229;41.820;23.490;2023-02-26T10:26:39;11.38;;;2.95;;
10365;SDS011;5229;41.820;23.490;2023-02-26T10:29:14;7.85;;;3.13;;
10365;SDS011;5229;41.820;23.490;2023-02-26T10:31:51;8.55;;;4.03;;
10365;SDS011;5229;41.820;23.490;2023-02-26T10:34:28;9.52;;;3.60;;
10365;SDS011;5229;41.820;23.490;2023-02-26T10:37:02;9.85;;;3.45;;
10365;SDS011;5229;41.820;23.490;2023-02-26T10:39:36;12.30;;;3.03;;
10365;SDS011;5229;41.820;23.490;2023-02-26T10:42:09;7.68;;;3.20;;
10365;SDS011;5229;41.820;23.490;2023-02-26T10:44:43;6.75;;;3.85;;
10365;SDS011;5229;41.820;23.490;2023-02-26T10:47:19;9.15;;;4.28;;
10365;SDS011;5229;41.820;23.490;2023-02-26T10:49:54;8.50;;;4.20;;
10365;SDS011;5229;41.820;23.490;2023-02-26T10:52:27;10.02;;;5.03;;
10365;SDS011;5229;41.820;23.490;2023-02-26T10:57:54;5.68;;;3.80;;
10365;SDS011;5229;41.820;23.490;2023-02-26T11:00:31;8.02;;;3.35;;
10365;SDS011;5229;41.820;23.490;2023-02-26T11:03:01;10.17;;;3.47;;
10365;SDS011;5229;41.820;23.490;2023-02-26T11:05:31;8.90;;;3.80;;
10365;SDS011;5229;41.820;23.490;2023-02-26T11:08:01;12.30;;;3.83;;
10365;SDS011;5229;41.820;23.490;2023-02-26T11:10:35;10.37;;;3.73;;
10365;SDS011;5229;41.820;23.490;2023-02-26T11:13:08;9.83;;;3.50;;
10365;SDS011;5229;41.820;23.490;2023-02-26T11:15:35;12.23;;;3.30;;
10365;SDS011;5229;41.820;23.490;2023-02-26T11:18:03;6.67;;;3.97;;
10365;SDS011;5229;41.820;23.490;2023-02-26T11:20:33;7.10;;;3.17;;
10365;SDS011;5229;41.820;23.490;2023-02-26T11:23:05;8.23;;;3.47;;
10365;SDS011;5229;41.820;23.490;2023-02-26T11:25:51;9.70;;;3.70;;
10365;SDS011;5229;41.820;23.490;2023-02-26T11:28:20;9.67;;;3.30;;
10365;SDS011;5229;41.820;23.490;2023-02-26T11:30:50;11.53;;;3.63;;
10365;SDS011;5229;41.820;23.490;2023-02-26T11:33:22;8.70;;;3.73;;
10365;SDS011;5229;41.820;23.490;2023-02-26T11:35:52;11.90;;;5.30;;
10365;SDS011;5229;41.820;23.490;2023-02-26T11:38:24;13.50;;;3.80;;
10365;SDS011;5229;41.820;23.490;2023-02-26T11:40:54;8.47;;;3.23;;
10365;SDS011;5229;41.820;23.490;2023-02-26T11:43:23;7.03;;;3.77;;
10365;SDS011;5229;41.820;23.490;2023-02-26T11:45:53;9.33;;;3.30;;
10365;SDS011;5229;41.820;23.490;2023-02-26T11:48:28;12.23;;;3.73;;
10365;SDS011;5229;41.820;23.490;2023-02-26T11:51:04;9.27;;;3.47;;
10365;SDS011;5229;41.820;23.490;2023-02-26T11:53:33;10.33;;;3.83;;
10365;SDS011;5229;41.820;23.490;2023-02-26T11:56:02;9.27;;;3.50;;
10365;SDS011;5229;41.820;23.490;2023-02-26T11:58:38;6.47;;;3.40;;
10365;SDS011;5229;41.820;23.490;2023-02-26T12:01:09;6.70;;;3.50;;
10365;SDS011;5229;41.820;23.490;2023-02-26T12:03:39;6.93;;;4.00;;
10365;SDS011;5229;41.820;23.490;2023-02-26T12:06:14;7.03;;;3.33;;
10365;SDS011;5229;41.820;23.490;2023-02-26T12:08:43;11.20;;;5.73;;
10365;SDS011;5229;41.820;23.490;2023-02-26T12:11:14;7.03;;;4.53;;
10365;SDS011;5229;41.820;23.490;2023-02-26T12:14:13;5.73;;;3.70;;
10365;SDS011;5229;41.820;23.490;2023-02-26T12:16:54;8.80;;;3.43;;
10365;SDS011;5229;41.820;23.490;2023-02-26T12:19:34;7.37;;;5.03;;
10365;SDS011;5229;41.820;23.490;2023-02-26T12:22:14;6.20;;;3.60;;
10365;SDS011;5229;41.820;23.490;2023-02-26T12:25:05;5.30;;;3.33;;
10365;SDS011;5229;41.820;23.490;2023-02-26T12:31:05;6.87;;;2.80;;
10365;SDS011;5229;41.820;23.490;2023-02-26T12:33:52;8.50;;;3.73;;
10365;SDS011;5229;41.820;23.490;2023-02-26T12:36:37;9.73;;;5.30;;
10365;SDS011;5229;41.820;23.490;2023-02-26T12:39:16;11.70;;;3.80;;
10365;SDS011;5229;41.820;23.490;2023-02-26T12:42:00;9.33;;;3.40;;
10365;SDS011;5229;41.820;23.490;2023-02-26T12:44:44;8.93;;;3.83;;
10365;SDS011;5229;41.820;23.490;2023-02-26T12:47:24;10.10;;;3.40;;
10365;SDS011;5229;41.820;23.490;2023-02-26T12:50:02;5.67;;;3.27;;
10365;SDS011;5229;41.820;23.490;2023-02-26T12:52:52;5.60;;;3.77;;
10365;SDS011;5229;41.820;23.490;2023-02-26T12:55:33;5.93;;;3.40;;
10365;SDS011;5229;41.820;23.490;2023-02-26T13:01:07;6.10;;;3.20;;
10365;SDS011;5229;41.820;23.490;2023-02-26T13:03:55;11.93;;;3.13;;
10365;SDS011;5229;41.820;23.490;2023-02-26T13:09:31;7.40;;;3.40;;
10365;SDS011;5229;41.820;23.490;2023-02-26T13:12:06;12.60;;;4.00;;
10365;SDS011;5229;41.820;23.490;2023-02-26T13:14:47;6.63;;;3.07;;
10365;SDS011;5229;41.820;23.490;2023-02-26T13:17:25;9.23;;;4.67;;
10365;SDS011;5229;41.820;23.490;2023-02-26T13:19:57;6.27;;;3.00;;
10365;SDS011;5229;41.820;23.490;2023-02-26T13:22:29;10.03;;;3.30;;
10365;SDS011;5229;41.820;23.490;2023-02-26T13:25:01;6.17;;;3.20;;
10365;SDS011;5229;41.820;23.490;2023-02-26T13:27:31;7.80;;;3.53;;
10365;SDS011;5229;41.820;23.490;2023-02-26T13:30:17;11.30;;;3.37;;
10365;SDS011;5229;41.820;23.490;2023-02-26T13:32:49;11.37;;;3.50;;
10365;SDS011;5229;41.820;23.490;2023-02-26T13:35:24;10.00;;;3.40;;
10365;SDS011;5229;41.820;23.490;2023-02-26T13:37:54;9.40;;;3.47;;
10365;SDS011;5229;41.820;23.490;2023-02-26T13:40:32;7.23;;;4.87;;
10365;SDS011;5229;41.820;23.490;2023-02-26T13:46:13;8.00;;;3.70;;
10365;SDS011;5229;41.820;23.490;2023-02-26T13:48:49;6.37;;;3.17;;
10365;SDS011;5229;41.820;23.490;2023-02-26T13:51:26;9.90;;;3.80;;
10365;SDS011;5229;41.820;23.490;2023-02-26T13:53:58;7.40;;;3.30;;
10365;SDS011;5229;41.820;23.490;2023-02-26T13:59:36;7.53;;;3.43;;
10365;SDS011;5229;41.820;23.490;2023-02-26T14:05:30;8.10;;;3.87;;
10365;SDS011;5229;41.820;23.490;2023-02-26T14:10:53;11.33;;;3.80;;
10365;SDS011;5229;41.820;23.490;2023-02-26T14:13:30;7.80;;;3.70;;
10365;SDS011;5229;41.820;23.490;2023-02-26T14:16:08;5.50;;;3.27;;
10365;SDS011;5229;41.820;23.490;2023-02-26T14:18:40;7.97;;;3.00;;
10365;SDS011;5229;41.820;23.490;2023-02-26T14:24:03;9.97;;;3.30;;
10365;SDS011;5229;41.820;23.490;2023-02-26T14:26:41;7.93;;;3.37;;
10365;SDS011;5229;41.820;23.490;2023-02-26T14:29:15;10.30;;;3.40;;
10365;SDS011;5229;41.820;23.490;2023-02-26T14:31:49;7.20;;;2.90;;
10365;SDS011;5229;41.820;23.490;2023-02-26T14:34:20;14.67;;;3.77;;
10365;SDS011;5229;41.820;23.490;2023-02-26T14:36:50;9.57;;;3.33;;
10365;SDS011;5229;41.820;23.490;2023-02-26T14:39:23;6.13;;;3.60;;
10365;SDS011;5229;41.820;23.490;2023-02-26T14:41:54;9.83;;;3.30;;
10365;SDS011;5229;41.820;23.490;2023-02-26T14:44:26;5.93;;;3.30;;
10365;SDS011;5229;41.820;23.490;2023-02-26T14:46:56;7.57;;;3.80;;
10365;SDS011;5229;41.820;23.490;2023-02-26T14:49:26;10.00;;;3.27;;
10365;SDS011;5229;41.820;23.490;2023-02-26T14:55:08;7.53;;;3.33;;
10365;SDS011;5229;41.820;23.490;2023-02-26T14:57:49;10.67;;;4.00;;
10365;SDS011;5229;41.820;23.490;2023-02-26T15:00:25;9.13;;;3.37;;
10365;SDS011;5229;41.820;23.490;2023-02-26T15:06:09;8.60;;;3.40;;
10365;SDS011;5229;41.820;23.490;2023-02-26T15:08:47;7.03;;;2.97;;
10365;SDS011;5229;41.820;23.490;2023-02-26T15:17:47;9.33;;;3.00;;
10365;SDS011;5229;41.820;23.490;2023-02-26T15:20:26;9.00;;;3.47;;
10365;SDS011;5229;41.820;23.490;2023-02-26T15:23:11;7.80;;;3.50;;
10365;SDS011;5229;41.820;23.490;2023-02-26T15:25:54;6.23;;;3.07;;
10365;SDS011;5229;41.820;23.490;2023-02-26T15:28:24;7.80;;;3.13;;
10365;SDS011;5229;41.820;23.490;2023-02-26T15:30:52;8.27;;;3.47;;
10365;SDS011;5229;41.820;23.490;2023-02-26T15:33:22;7.87;;;3.33;;
10365;SDS011;5229;41.820;23.490;2023-02-26T15:35:50;4.93;;;2.90;;
10365;SDS011;5229;41.820;23.490;2023-02-26T15:38:19;6.57;;;3.03;;
10365;SDS011;5229;41.820;23.490;2023-02-26T15:40:47;6.97;;;3.37;;
10365;SDS011;5229;41.820;23.490;2023-02-26T15:43:20;10.13;;;3.47;;
10365;SDS011;5229;41.820;23.490;2023-02-26T15:45:50;9.87;;;3.27;;
10365;SDS011;5229;41.820;23.490;2023-02-26T15:48:19;7.67;;;3.57;;
10365;SDS011;5229;41.820;23.490;2023-02-26T15:50:52;13.37;;;5.77;;
10365;SDS011;5229;41.820;23.490;2023-02-26T15:53:25;9.73;;;3.63;;
10365;SDS011;5229;41.820;23.490;2023-02-26T15:55:56;8.00;;;3.73;;